Time;durP1;ratioP1;P1;durP2;ratioP2;P2;SDS_P1;SDS_P2;PMS_P1;PMS_P2;Temp;Humidity;BMP_temperature;BMP_pressure;BME280_temperature;BME280_humidity;BME280_pressure;Samples;Min_cycle;Max_cycle;Signal;HPM_P1;HPM_P2
2023/06/29 00:01:45;;;;;;;34.03;26.77;;;19.10;99.90;;;;;;5031591;28;20041;-82
2023/06/29 00:04:11;;;;;;;32.17;27.23;;;19.10;99.90;;;;;;5014281;28;20041;-83
2023/06/29 00:06:37;;;;;;;36.40;27.53;;;19.10;99.90;;;;;;5014527;28;20136;-81
2023/06/29 00:09:06;;;;;;;32.47;27.57;;;19.10;99.90;;;;;;4997889;28;20073;-81
2023/06/29 00:11:33;;;;;;;36.80;29.57;;;19.10;99.90;;;;;;4998423;28;20115;-82
2023/06/29 00:14:00;;;;;;;36.63;29.50;;;19.10;99.90;;;;;;4998440;28;20054;-82
2023/06/29 00:16:25;;;;;;;32.13;28.33;;;19.10;99.90;;;;;;5014272;28;20049;-83
2023/06/29 00:18:54;;;;;;;37.73;30.17;;;19.00;99.90;;;;;;5030863;28;20049;-83
2023/06/29 00:21:20;;;;;;;34.20;30.40;;;19.00;99.90;;;;;;5014256;28;20103;-82
2023/06/29 00:23:46;;;;;;;34.70;28.17;;;19.00;99.90;;;;;;5015623;28;20515;-82
2023/06/29 00:26:13;;;;;;;34.57;29.87;;;19.00;99.90;;;;;;5001788;28;20056;-82
2023/06/29 00:28:39;;;;;;;38.00;29.13;;;19.00;99.90;;;;;;5017997;28;20099;-82
2023/06/29 00:31:04;;;;;;;36.50;30.63;;;19.00;99.90;;;;;;5018075;28;20500;-82
2023/06/29 00:33:31;;;;;;;36.83;29.73;;;19.00;99.90;;;;;;5017918;28;20064;-82
2023/06/29 00:35:57;;;;;;;36.90;30.10;;;19.00;99.90;;;;;;5018185;28;20094;-81
2023/06/29 00:38:22;;;;;;;37.30;30.87;;;19.00;99.90;;;;;;5000655;28;20494;-81
2023/06/29 00:40:48;;;;;;;37.80;30.97;;;19.00;99.90;;;;;;5001651;28;20045;-81
2023/06/29 00:43:14;;;;;;;36.10;29.60;;;19.00;99.90;;;;;;5017243;28;20042;-82
2023/06/29 00:45:40;;;;;;;40.83;31.20;;;18.90;99.90;;;;;;5017671;28;20060;-81
2023/06/29 00:48:06;;;;;;;38.03;30.10;;;19.00;99.90;;;;;;5033971;28;20103;-81
2023/06/29 00:50:32;;;;;;;43.13;33.00;;;18.90;99.90;;;;;;5017459;28;20045;-82
2023/06/29 00:52:59;;;;;;;36.50;30.90;;;19.00;99.90;;;;;;5033887;28;20049;-82
2023/06/29 00:55:26;;;;;;;35.80;31.17;;;19.00;99.90;;;;;;5017650;28;20057;-82
2023/06/29 00:57:51;;;;;;;38.50;31.83;;;19.00;99.90;;;;;;5017257;28;20061;-81
2023/06/29 01:00:18;;;;;;;40.83;32.73;;;18.90;99.90;;;;;;5000788;28;20052;-81
2023/06/29 01:02:43;;;;;;;37.83;30.33;;;18.90;99.90;;;;;;5033906;28;20052;-81
2023/06/29 01:05:11;;;;;;;39.33;31.63;;;18.90;99.90;;;;;;5000929;28;20041;-81
2023/06/29 01:07:58;;;;;;;40.30;32.10;;;18.90;99.90;;;;;;5017317;28;20061;-81
2023/06/29 01:10:28;;;;;;;37.97;31.67;;;18.90;99.90;;;;;;5033191;28;20053;-82
2023/06/29 01:12:53;;;;;;;40.27;32.07;;;19.00;99.90;;;;;;5033771;28;20057;-81
2023/06/29 01:15:21;;;;;;;40.33;32.20;;;18.90;99.90;;;;;;5000586;28;20057;-81
2023/06/29 01:17:48;;;;;;;37.97;32.20;;;18.90;99.90;;;;;;5033947;28;20061;-81
2023/06/29 01:20:15;;;;;;;35.90;30.90;;;19.00;99.90;;;;;;5033803;28;20452;-81
2023/06/29 01:22:58;;;;;;;39.53;32.13;;;18.90;99.90;;;;;;5033244;28;20091;-81
2023/06/29 01:25:25;;;;;;;38.47;30.03;;;18.90;99.90;;;;;;5016818;28;20045;-82
2023/06/29 01:27:51;;;;;;;38.37;30.93;;;18.90;99.90;;;;;;5033303;28;20056;-81
2023/06/29 01:30:17;;;;;;;36.70;31.40;;;18.90;99.90;;;;;;5016371;28;20042;-81
2023/06/29 01:32:44;;;;;;;36.80;31.33;;;18.90;99.90;;;;;;5016811;28;20052;-81
2023/06/29 01:35:11;;;;;;;37.23;31.90;;;18.90;99.90;;;;;;5000765;28;20060;-81
2023/06/29 01:37:50;;;;;;;39.77;31.50;;;18.90;99.90;;;;;;5033120;28;20089;-81
2023/06/29 01:40:19;;;;;;;40.60;31.73;;;18.80;99.90;;;;;;5016957;28;20046;-81
2023/06/29 01:42:47;;;;;;;37.70;31.47;;;18.90;99.90;;;;;;5032989;28;20046;-81
2023/06/29 01:45:14;;;;;;;42.33;31.57;;;18.90;99.90;;;;;;5033874;28;20077;-81
2023/06/29 01:47:40;;;;;;;38.27;31.67;;;18.90;99.90;;;;;;5016315;28;20045;-81
2023/06/29 01:50:07;;;;;;;41.20;31.47;;;18.90;99.90;;;;;;5033201;28;20392;-82
2023/06/29 01:52:33;;;;;;;37.33;31.57;;;18.90;99.90;;;;;;5016694;28;20041;-82
2023/06/29 01:54:59;;;;;;;37.80;30.53;;;18.90;99.90;;;;;;5000435;28;20191;-81
2023/06/29 01:57:25;;;;;;;38.87;32.47;;;18.90;99.90;;;;;;5032543;28;20409;-83
2023/06/29 01:59:51;;;;;;;38.43;32.13;;;18.90;99.90;;;;;;5016320;28;20409;-82
2023/06/29 02:02:17;;;;;;;36.40;31.20;;;18.90;99.90;;;;;;5016241;28;20044;-82
2023/06/29 02:04:43;;;;;;;40.43;32.17;;;18.90;99.90;;;;;;5015954;28;20049;-82
2023/06/29 02:07:08;;;;;;;40.27;32.30;;;18.90;99.90;;;;;;5016428;28;20111;-82
2023/06/29 02:09:34;;;;;;;39.33;30.00;;;18.90;99.90;;;;;;5032061;28;20049;-82
2023/06/29 02:12:00;;;;;;;34.87;30.67;;;18.90;99.90;;;;;;5000097;28;20046;-82
2023/06/29 02:14:28;;;;;;;39.47;31.60;;;18.90;99.90;;;;;;5015947;28;20099;-82
2023/06/29 02:16:54;;;;;;;36.50;30.27;;;18.90;99.90;;;;;;5016039;28;20084;-82
2023/06/29 02:19:19;;;;;;;37.30;32.63;;;18.90;99.90;;;;;;5000021;28;20053;-81
2023/06/29 02:21:45;;;;;;;40.77;32.80;;;18.90;99.90;;;;;;5015874;28;20052;-82
2023/06/29 02:24:11;;;;;;;39.03;30.87;;;18.90;99.90;;;;;;4999708;28;20068;-82
2023/06/29 02:26:37;;;;;;;38.10;29.93;;;18.90;99.90;;;;;;4983414;28;20053;-82
2023/06/29 02:29:03;;;;;;;35.07;29.23;;;18.90;99.90;;;;;;4999486;28;20132;-82
2023/06/29 02:31:30;;;;;;;41.43;31.00;;;18.90;99.90;;;;;;5031900;28;20041;-82
2023/06/29 02:33:55;;;;;;;39.00;29.33;;;18.90;99.90;;;;;;5016131;28;20049;-82
2023/06/29 02:36:22;;;;;;;38.43;30.53;;;18.90;99.90;;;;;;5015569;28;20049;-82
2023/06/29 02:38:50;;;;;;;39.07;29.10;;;18.90;99.90;;;;;;5015621;28;20042;-81
2023/06/29 02:41:16;;;;;;;38.47;30.17;;;18.90;99.90;;;;;;5032205;28;20132;-82
2023/06/29 02:43:42;;;;;;;39.37;28.43;;;18.90;99.90;;;;;;5015632;28;20128;-82
2023/06/29 02:46:08;;;;;;;35.50;29.13;;;18.90;99.90;;;;;;5015311;28;20493;-82
2023/06/29 02:48:33;;;;;;;38.37;29.00;;;18.90;99.90;;;;;;4999396;28;20045;-81
2023/06/29 02:50:59;;;;;;;34.93;28.97;;;18.90;99.90;;;;;;4999638;28;20049;-82
2023/06/29 02:53:25;;;;;;;33.77;27.70;;;18.90;99.90;;;;;;4999462;28;20085;-81
2023/06/29 02:55:50;;;;;;;34.67;27.03;;;18.90;99.90;;;;;;5015277;28;20491;-81
2023/06/29 02:58:16;;;;;;;34.60;27.63;;;18.90;99.90;;;;;;5015423;28;20053;-81
2023/06/29 03:00:42;;;;;;;32.80;26.47;;;18.90;99.90;;;;;;5014790;28;20524;-82
2023/06/29 03:03:07;;;;;;;34.97;28.53;;;18.90;99.90;;;;;;5031842;28;20056;-83
2023/06/29 03:05:33;;;;;;;35.33;27.37;;;18.90;99.90;;;;;;5015301;28;20131;-82
2023/06/29 03:07:59;;;;;;;34.07;26.87;;;18.90;99.90;;;;;;5031674;28;20074;-82
2023/06/29 03:10:25;;;;;;;33.13;26.33;;;18.90;99.90;;;;;;5032581;28;20179;-82
2023/06/29 03:12:51;;;;;;;32.30;26.37;;;18.90;99.90;;;;;;4982685;28;20136;-82
2023/06/29 03:15:17;;;;;;;38.33;28.20;;;18.90;99.90;;;;;;5015232;28;20052;-82
2023/06/29 03:17:42;;;;;;;34.00;26.77;;;18.90;99.90;;;;;;5015009;28;20053;-82
2023/06/29 03:20:09;;;;;;;34.00;25.53;;;18.90;99.90;;;;;;5015432;28;20053;-82
2023/06/29 03:22:34;;;;;;;37.23;27.40;;;18.90;99.90;;;;;;5014946;28;20057;-82
2023/06/29 03:25:00;;;;;;;32.50;25.87;;;18.90;99.90;;;;;;4998935;28;20128;-82
2023/06/29 03:27:26;;;;;;;31.37;26.33;;;18.90;99.90;;;;;;4999208;28;20052;-83
2023/06/29 03:29:55;;;;;;;34.37;26.13;;;18.90;99.90;;;;;;5014685;28;20057;-83
2023/06/29 03:32:21;;;;;;;31.03;25.20;;;18.90;99.90;;;;;;5031606;28;20048;-83
2023/06/29 03:34:47;;;;;;;32.30;24.60;;;18.90;99.90;;;;;;5014933;28;20053;-83
2023/06/29 03:37:13;;;;;;;33.03;25.53;;;18.90;99.90;;;;;;4982812;28;20077;-83
2023/06/29 03:39:38;;;;;;;30.63;24.30;;;18.90;99.90;;;;;;5015335;28;20041;-82
2023/06/29 03:42:04;;;;;;;32.07;25.00;;;18.90;99.90;;;;;;4999147;28;20059;-82
2023/06/29 03:44:30;;;;;;;32.97;23.93;;;18.90;99.90;;;;;;5031213;28;20042;-82
2023/06/29 03:46:56;;;;;;;30.70;24.63;;;18.90;99.90;;;;;;5014883;28;20037;-83
2023/06/29 03:49:21;;;;;;;29.60;24.37;;;18.90;99.90;;;;;;5014614;28;20543;-83
2023/06/29 03:51:47;;;;;;;31.67;24.37;;;18.90;99.90;;;;;;5014800;28;20049;-82
2023/06/29 03:54:13;;;;;;;31.53;24.33;;;18.90;99.90;;;;;;5014972;28;20122;-83
2023/06/29 03:56:38;;;;;;;29.10;23.47;;;18.90;99.90;;;;;;4998421;28;20049;-83
2023/06/29 03:59:04;;;;;;;30.43;24.17;;;18.90;99.90;;;;;;5033292;28;20041;-82
2023/06/29 04:01:30;;;;;;;30.50;24.97;;;19.00;99.90;;;;;;5018488;28;20482;-82
2023/06/29 04:03:56;;;;;;;29.60;23.77;;;19.00;99.90;;;;;;5018350;28;20136;-82
2023/06/29 04:06:21;;;;;;;28.10;23.67;;;19.00;99.90;;;;;;5035157;28;20509;-82
2023/06/29 04:08:47;;;;;;;30.67;23.73;;;19.00;99.90;;;;;;5001751;28;20065;-83
2023/06/29 04:11:13;;;;;;;29.73;25.40;;;19.10;99.90;;;;;;5002231;28;20513;-82
2023/06/29 04:13:39;;;;;;;29.07;23.50;;;19.10;99.90;;;;;;5035516;28;20115;-83
2023/06/29 04:16:05;;;;;;;30.00;23.40;;;19.10;99.90;;;;;;5034752;28;20057;-83
2023/06/29 04:18:30;;;;;;;26.37;22.17;;;19.10;99.90;;;;;;5002436;28;20128;-83
2023/06/29 04:20:56;;;;;;;28.37;23.90;;;19.20;99.90;;;;;;5018320;28;20824;-83
2023/06/29 04:23:22;;;;;;;26.30;22.27;;;19.20;99.90;;;;;;5002020;28;20052;-82
2023/06/29 04:25:48;;;;;;;26.20;21.97;;;19.20;99.90;;;;;;5034613;28;20049;-83
2023/06/29 04:28:13;;;;;;;29.13;22.43;;;19.20;99.90;;;;;;5034504;28;20063;-83
2023/06/29 04:30:43;;;;;;;25.70;22.17;;;19.20;99.90;;;;;;5001760;28;20099;-83
2023/06/29 04:33:10;;;;;;;31.83;22.70;;;19.20;99.90;;;;;;5034668;28;20045;-82
2023/06/29 04:35:43;;;;;;;26.93;20.67;;;19.20;99.90;;;;;;5018195;28;20119;-82
2023/06/29 04:38:10;;;;;;;25.47;20.53;;;19.20;99.90;;;;;;5013950;28;20084;-83
2023/06/29 04:40:37;;;;;;;27.97;22.53;;;19.20;99.90;;;;;;5018279;28;20405;-82
2023/06/29 04:43:03;;;;;;;28.47;21.90;;;19.20;99.90;;;;;;5017385;28;20390;-83
2023/06/29 04:45:32;;;;;;;24.67;20.67;;;19.20;99.90;;;;;;5001452;28;20420;-82
2023/06/29 04:47:59;;;;;;;28.30;21.47;;;19.20;99.90;;;;;;5017719;28;20058;-83
2023/06/29 04:50:26;;;;;;;27.83;21.63;;;19.20;99.90;;;;;;5034182;28;20050;-82
2023/06/29 04:52:58;;;;;;;24.97;20.93;;;19.20;99.90;;;;;;5033891;28;20046;-83
2023/06/29 04:55:25;;;;;;;26.17;21.03;;;19.20;99.90;;;;;;5035007;28;20136;-83
2023/06/29 04:57:51;;;;;;;24.63;20.13;;;19.20;99.90;;;;;;5000966;28;20060;-83
2023/06/29 05:00:19;;;;;;;27.30;22.10;;;19.20;99.90;;;;;;5017581;28;20057;-81
2023/06/29 05:02:45;;;;;;;26.57;21.37;;;19.20;99.90;;;;;;5033772;28;20045;-82
2023/06/29 05:05:11;;;;;;;27.93;21.27;;;19.20;99.90;;;;;;5017204;28;20045;-82
2023/06/29 05:07:37;;;;;;;26.67;20.67;;;19.20;99.90;;;;;;5033905;28;20045;-82
2023/06/29 05:10:05;;;;;;;28.63;22.13;;;19.20;99.90;;;;;;5016443;28;20476;-81
2023/06/29 05:12:31;;;;;;;30.77;22.43;;;19.20;99.90;;;;;;5033513;28;20045;-81
2023/06/29 05:14:56;;;;;;;28.33;19.93;;;19.20;99.90;;;;;;5016903;28;20076;-81
2023/06/29 05:17:22;;;;;;;26.17;19.63;;;19.30;99.90;;;;;;5017281;28;20048;-81
2023/06/29 05:19:48;;;;;;;26.90;20.37;;;19.30;99.90;;;;;;5033368;28;20559;-81
2023/06/29 05:22:14;;;;;;;25.60;20.67;;;19.30;99.90;;;;;;5033645;28;20045;-81
2023/06/29 05:24:40;;;;;;;25.17;20.30;;;19.30;99.90;;;;;;5000424;28;20385;-82
2023/06/29 05:27:06;;;;;;;26.90;21.07;;;19.30;99.90;;;;;;5034516;28;20053;-82
2023/06/29 05:29:32;;;;;;;24.70;19.60;;;19.40;99.90;;;;;;5033465;28;20088;-82
2023/06/29 05:31:58;;;;;;;24.47;20.40;;;19.40;99.90;;;;;;5016503;28;20084;-82
2023/06/29 05:34:23;;;;;;;25.73;20.77;;;19.40;99.90;;;;;;5033207;28;20046;-82
2023/06/29 05:36:49;;;;;;;23.63;19.23;;;19.40;99.90;;;;;;5032959;28;20114;-83
2023/06/29 05:39:15;;;;;;;27.23;21.30;;;19.40;99.90;;;;;;4984091;28;20049;-82
2023/06/29 05:41:41;;;;;;;26.57;20.40;;;19.40;99.90;;;;;;5017021;28;20053;-82
2023/06/29 05:44:09;;;;;;;29.30;19.97;;;19.40;99.90;;;;;;5000165;28;20456;-82
2023/06/29 05:46:36;;;;;;;23.13;20.53;;;19.50;99.90;;;;;;5001288;28;20451;-82
2023/06/29 05:49:02;;;;;;;23.17;19.40;;;19.50;99.90;;;;;;5032957;28;20053;-82
2023/06/29 05:51:28;;;;;;;24.37;19.47;;;19.60;99.90;;;;;;5034006;28;20045;-82
2023/06/29 05:53:57;;;;;;;25.73;19.53;;;19.60;99.90;;;;;;4983772;28;20053;-82
2023/06/29 05:56:23;;;;;;;25.53;19.80;;;19.70;99.90;;;;;;5016607;28;20048;-82
2023/06/29 05:58:49;;;;;;;23.93;19.47;;;19.70;99.90;;;;;;5000135;28;20061;-85
2023/06/29 06:01:15;;;;;;;23.53;20.40;;;19.70;99.90;;;;;;5016274;28;20081;-82
2023/06/29 06:03:41;;;;;;;24.37;19.87;;;19.80;99.90;;;;;;5000069;28;20041;-82
2023/06/29 06:06:09;;;;;;;23.27;18.90;;;19.80;99.90;;;;;;5016002;28;20464;-82
2023/06/29 06:08:34;;;;;;;23.93;19.17;;;19.80;99.90;;;;;;5015911;28;20108;-81
2023/06/29 06:11:03;;;;;;;25.57;20.13;;;19.90;99.90;;;;;;5033690;28;20501;-82
2023/06/29 06:13:29;;;;;;;27.27;19.93;;;19.90;99.90;;;;;;5000358;28;20104;-82
2023/06/29 06:15:55;;;;;;;24.77;18.90;;;19.90;99.90;;;;;;4999593;28;20049;-83
2023/06/29 06:18:21;;;;;;;25.10;20.23;;;19.90;99.90;;;;;;5016377;28;20397;-84
2023/06/29 06:20:46;;;;;;;26.03;20.77;;;19.90;99.90;;;;;;5015335;28;20049;-84
2023/06/29 06:23:12;;;;;;;31.53;20.70;;;19.90;99.90;;;;;;5032032;28;20438;-83
2023/06/29 06:25:38;;;;;;;25.50;20.53;;;19.90;99.90;;;;;;5016117;28;20049;-82
2023/06/29 06:28:04;;;;;;;30.43;21.17;;;19.90;99.90;;;;;;5015761;28;20049;-82
2023/06/29 06:30:30;;;;;;;24.73;20.10;;;19.90;99.90;;;;;;5015635;28;20088;-80
2023/06/29 06:32:56;;;;;;;27.57;21.23;;;19.80;99.90;;;;;;5031945;28;20150;-81
2023/06/29 06:35:21;;;;;;;29.37;21.33;;;19.80;99.90;;;;;;5015694;28;20124;-81
2023/06/29 06:37:47;;;;;;;26.77;21.27;;;19.90;99.90;;;;;;4999276;28;20079;-80
2023/06/29 06:40:16;;;;;;;26.90;20.83;;;19.90;99.90;;;;;;5031998;28;20046;-80
2023/06/29 06:42:41;;;;;;;25.27;19.97;;;20.00;99.90;;;;;;5032119;28;20049;-81
2023/06/29 06:45:08;;;;;;;26.97;21.00;;;20.00;99.90;;;;;;4998787;28;20041;-82
2023/06/29 06:47:35;;;;;;;24.90;20.37;;;20.10;99.90;;;;;;5032130;28;20075;-83
2023/06/29 06:50:01;;;;;;;27.93;20.43;;;20.20;99.90;;;;;;5031510;28;20052;-82
2023/06/29 06:52:28;;;;;;;26.47;20.73;;;20.30;99.90;;;;;;5032167;28;20187;-84
2023/06/29 06:54:54;;;;;;;25.40;21.13;;;20.40;99.90;;;;;;5015402;28;20048;-85
2023/06/29 06:57:20;;;;;;;26.57;20.90;;;20.50;99.90;;;;;;4998829;28;20485;-85
2023/06/29 06:59:48;;;;;;;25.63;20.83;;;20.70;99.90;;;;;;4999281;28;20049;-88
2023/06/29 07:02:16;;;;;;;26.50;20.90;;;20.90;99.90;;;;;;5015354;28;20079;-88
2023/06/29 07:04:42;;;;;;;26.43;20.40;;;21.20;99.90;;;;;;5015587;28;20059;-88
2023/06/29 07:07:12;;;;;;;29.53;20.93;;;21.20;99.90;;;;;;5031556;28;20057;-91
2023/06/29 07:09:38;;;;;;;27.27;19.30;;;21.30;99.90;;;;;;5015709;28;20065;-90
2023/06/29 07:12:09;;;;;;;26.77;20.40;;;21.30;99.90;;;;;;5015345;28;20049;-88
2023/06/29 07:14:36;;;;;;;27.07;21.57;;;21.30;99.90;;;;;;5032236;28;20055;-90
2023/06/29 07:17:01;;;;;;;28.30;21.80;;;21.30;99.90;;;;;;5015216;28;20103;-89
2023/06/29 07:19:27;;;;;;;26.83;21.60;;;21.20;99.90;;;;;;5015730;28;20049;-90
2023/06/29 07:21:56;;;;;;;28.80;21.87;;;21.10;99.90;;;;;;5015321;28;20049;-89
2023/06/29 07:24:23;;;;;;;27.03;22.03;;;21.10;99.90;;;;;;5015704;28;20048;-90
2023/06/29 07:26:51;;;;;;;27.67;21.03;;;21.10;99.90;;;;;;4999226;28;20050;-90
2023/06/29 07:29:20;;;;;;;26.93;21.43;;;21.20;99.90;;;;;;5031575;28;20401;-88
2023/06/29 07:31:57;;;;;;;29.67;21.30;;;21.40;99.90;;;;;;5015474;28;20053;-89
2023/06/29 07:34:43;;;;;;;25.33;20.40;;;21.50;99.90;;;;;;5019760;28;20064;-89
2023/06/29 07:37:51;;;;;;;32.45;22.38;;;21.50;99.90;;;;;;5024203;28;20041;-88
2023/06/29 07:41:04;;;;;;;26.33;22.53;;;21.60;99.90;;;;;;5040170;28;20042;-88
2023/06/29 07:43:34;;;;;;;27.47;22.70;;;21.60;99.90;;;;;;5028841;28;20068;-87
2023/06/29 07:46:05;;;;;;;31.00;21.63;;;21.70;99.90;;;;;;5003273;28;20132;-88
2023/06/29 07:48:31;;;;;;;27.93;21.50;;;21.70;99.90;;;;;;5019474;28;20577;-88
2023/06/29 07:51:07;;;;;;;28.67;23.47;;;21.80;99.90;;;;;;5003410;28;20057;-89
2023/06/29 07:54:19;;;;;;;30.93;23.37;;;22.00;99.90;;;;;;5034379;28;20060;-88
2023/06/29 07:57:10;;;;;;;29.07;21.57;;;22.10;99.90;;;;;;5035774;28;20072;-88
2023/06/29 07:59:54;;;;;;;29.43;23.50;;;22.20;99.90;;;;;;4988664;28;20437;-89
2023/06/29 08:02:22;;;;;;;;;;;22.20;99.90;;;;;;5018950;28;20108;-89
2023/06/29 08:05:10;;;;;;;27.53;23.93;;;22.20;99.90;;;;;;5018334;28;20322;-89
2023/06/29 08:11:19;;;;;;;31.23;24.23;;;22.20;99.90;;;;;;5039997;28;20128;-89
2023/06/29 08:13:55;;;;;;;30.17;24.03;;;22.20;99.90;;;;;;5021752;28;20080;-89
2023/06/29 08:16:21;;;;;;;31.03;24.93;;;22.20;99.90;;;;;;5035614;28;20092;-89
2023/06/29 08:18:50;;;;;;;31.17;24.80;;;22.20;99.90;;;;;;5019217;28;20079;-86
2023/06/29 08:21:15;;;;;;;32.17;25.43;;;22.10;99.90;;;;;;5001648;28;20531;-76
2023/06/29 08:23:41;;;;;;;32.70;26.07;;;22.10;99.90;;;;;;5035494;28;20046;-84
2023/06/29 08:26:07;;;;;;;32.30;25.47;;;21.90;99.90;;;;;;5001567;28;20042;-84
2023/06/29 08:28:33;;;;;;;31.23;26.00;;;21.90;99.90;;;;;;5018425;28;20045;-84
2023/06/29 08:30:58;;;;;;;34.07;27.17;;;21.70;99.90;;;;;;5001736;28;20056;-78
2023/06/29 08:33:24;;;;;;;30.90;25.27;;;21.70;99.90;;;;;;5034328;28;20042;-78
2023/06/29 08:35:51;;;;;;;32.20;26.17;;;21.60;99.90;;;;;;5034333;28;20448;-78
2023/06/29 08:38:17;;;;;;;35.83;26.87;;;21.50;99.90;;;;;;5035112;28;20049;-78
2023/06/29 08:40:46;;;;;;;31.83;25.37;;;21.50;99.90;;;;;;5033950;28;20522;-78
2023/06/29 08:43:14;;;;;;;30.57;25.53;;;21.40;99.90;;;;;;5017742;28;20085;-78
2023/06/29 08:45:40;;;;;;;34.97;26.73;;;21.40;99.90;;;;;;5034682;28;20085;-79
2023/06/29 08:48:07;;;;;;;31.07;24.73;;;21.40;99.90;;;;;;5034116;28;20076;-79
2023/06/29 08:50:36;;;;;;;31.87;25.23;;;21.40;99.90;;;;;;5034012;28;20077;-84
2023/06/29 08:53:02;;;;;;;28.00;23.23;;;21.40;99.90;;;;;;5035138;28;20064;-80
2023/06/29 08:55:29;;;;;;;32.47;24.57;;;21.30;99.90;;;;;;5034962;28;20049;-80
2023/06/29 08:57:55;;;;;;;32.17;24.20;;;21.30;99.90;;;;;;5034243;28;20049;-85
2023/06/29 09:00:22;;;;;;;29.07;24.73;;;21.30;99.90;;;;;;5033636;28;20052;-73
2023/06/29 09:02:51;;;;;;;25.87;22.53;;;21.30;99.90;;;;;;5034913;28;20053;-73
2023/06/29 09:05:17;;;;;;;29.80;24.47;;;21.30;99.90;;;;;;5034536;28;20041;-74
2023/06/29 09:07:43;;;;;;;27.97;23.33;;;21.30;99.90;;;;;;5033591;28;20508;-76
2023/06/29 09:10:10;;;;;;;27.50;22.90;;;21.20;99.90;;;;;;5034846;28;20148;-75
2023/06/29 09:12:36;;;;;;;28.93;23.53;;;21.20;99.90;;;;;;5017515;28;20046;-71
2023/06/29 09:15:09;;;;;;;28.80;23.60;;;21.20;99.90;;;;;;5033587;28;20075;-69
2023/06/29 09:17:36;;;;;;;28.03;24.97;;;21.30;99.90;;;;;;5033546;28;20045;-72
2023/06/29 09:20:13;;;;;;;28.63;23.90;;;21.30;99.90;;;;;;5034650;28;20092;-72
2023/06/29 09:22:40;;;;;;;28.30;23.27;;;21.30;99.90;;;;;;5034040;28;20056;-67
2023/06/29 09:25:07;;;;;;;28.93;23.67;;;21.30;99.90;;;;;;5034605;28;20046;-71
2023/06/29 09:27:36;;;;;;;26.83;22.77;;;21.30;99.90;;;;;;5034172;28;20509;-70
2023/06/29 09:30:04;;;;;;;27.83;23.87;;;21.30;99.90;;;;;;5033491;28;20163;-71
2023/06/29 09:32:30;;;;;;;31.97;25.37;;;21.30;99.90;;;;;;5034114;28;20052;-71
2023/06/29 09:35:06;;;;;;;28.20;25.03;;;21.20;99.90;;;;;;5034203;28;20037;-71
2023/06/29 09:37:33;;;;;;;29.87;24.97;;;21.20;99.90;;;;;;5033170;28;20089;-74
2023/06/29 09:39:59;;;;;;;32.13;25.40;;;21.10;99.90;;;;;;5034390;28;20058;-84
2023/06/29 09:42:29;;;;;;;32.10;25.17;;;21.10;99.90;;;;;;5032749;28;20081;-75
2023/06/29 09:45:00;;;;;;;29.57;26.27;;;21.10;99.90;;;;;;5016313;28;20041;-77
2023/06/29 09:47:26;;;;;;;30.50;26.93;;;21.10;99.90;;;;;;5016126;28;20079;-82
2023/06/29 09:49:51;;;;;;;32.83;26.40;;;21.10;99.90;;;;;;5015574;28;20053;-81
2023/06/29 09:52:17;;;;;;;34.30;26.20;;;21.10;99.90;;;;;;5016428;28;20052;-82
2023/06/29 09:54:44;;;;;;;33.93;27.77;;;21.10;99.90;;;;;;5016536;28;20115;-82
2023/06/29 09:57:11;;;;;;;31.63;27.13;;;21.20;99.90;;;;;;4998942;28;20122;-81
2023/06/29 09:59:41;;;;;;;31.97;26.00;;;21.20;99.90;;;;;;5015984;28;20059;-82
2023/06/29 10:02:08;;;;;;;29.43;25.30;;;21.20;99.90;;;;;;5016158;28;20056;-81
2023/06/29 10:04:35;;;;;;;32.43;26.47;;;21.20;99.90;;;;;;4999769;28;20103;-82
2023/06/29 10:07:18;;;;;;;30.90;24.87;;;21.30;99.90;;;;;;5016263;28;20049;-82
2023/06/29 10:09:48;;;;;;;34.43;27.23;;;21.30;99.90;;;;;;5032389;28;20053;-82
2023/06/29 10:12:16;;;;;;;32.40;27.87;;;21.40;99.90;;;;;;5016051;28;20409;-82
2023/06/29 10:14:43;;;;;;;34.13;28.50;;;21.40;99.90;;;;;;5032388;28;20056;-82
2023/06/29 10:17:46;;;;;;;30.37;26.03;;;21.40;99.90;;;;;;5032303;28;20042;-80
2023/06/29 10:20:13;;;;;;;32.13;26.97;;;21.40;99.90;;;;;;5013760;28;20123;-71
2023/06/29 10:22:41;;;;;;;32.43;26.80;;;21.40;99.90;;;;;;5033022;28;20509;-73
2023/06/29 10:25:14;;;;;;;33.67;27.33;;;21.40;99.90;;;;;;5033426;28;20445;-77
2023/06/29 10:27:41;;;;;;;34.23;27.70;;;21.50;99.90;;;;;;5015861;28;20049;-82
2023/06/29 10:30:07;;;;;;;30.93;27.47;;;21.40;99.90;;;;;;5032291;28;20068;-71
2023/06/29 10:32:39;;;;;;;35.40;28.73;;;21.40;99.90;;;;;;4999327;28;20041;-71
2023/06/29 10:35:09;;;;;;;34.27;28.40;;;21.40;99.90;;;;;;5033094;28;20045;-71
2023/06/29 10:37:48;;;;;;;37.47;28.37;;;21.40;99.90;;;;;;5032857;28;20046;-71
2023/06/29 10:40:18;;;;;;;33.53;28.67;;;21.50;99.90;;;;;;5033353;28;20049;-70
2023/06/29 10:42:43;;;;;;;33.27;27.40;;;21.50;99.90;;;;;;5032965;28;20397;-83
2023/06/29 10:45:18;;;;;;;32.20;27.80;;;21.60;99.90;;;;;;5031828;28;20048;-83
2023/06/29 10:47:58;;;;;;;33.88;29.48;;;21.60;99.90;;;;;;5031770;28;20041;-83
2023/06/29 10:50:50;;;;;;;34.37;28.50;;;21.50;99.90;;;;;;5032031;28;20056;-83
2023/06/29 10:53:17;;;;;;;36.77;29.27;;;21.50;99.90;;;;;;5029210;28;20053;-84
2023/06/29 10:55:49;;;;;;;33.67;29.37;;;21.50;99.90;;;;;;5031338;28;20053;-83
2023/06/29 10:58:24;;;;;;;32.17;27.77;;;21.50;99.90;;;;;;5031734;28;20133;-84
2023/06/29 11:00:51;;;;;;;32.60;27.33;;;21.60;99.90;;;;;;5032307;28;20599;-83
2023/06/29 11:03:19;;;;;;;36.17;29.37;;;21.70;99.90;;;;;;5015424;28;20405;-84
2023/06/29 11:05:50;;;;;;;35.33;28.83;;;21.80;99.90;;;;;;4998885;28;20076;-82
2023/06/29 11:08:16;;;;;;;34.33;28.30;;;22.00;99.90;;;;;;5015109;28;20049;-84
2023/06/29 11:10:42;;;;;;;34.67;29.07;;;22.20;99.90;;;;;;5031029;28;20147;-79
2023/06/29 11:13:09;;;;;;;36.03;29.73;;;22.40;99.90;;;;;;5015194;28;20041;-81
2023/06/29 11:15:36;;;;;;;33.93;28.43;;;22.50;99.90;;;;;;5031150;28;20049;-80
2023/06/29 11:18:06;;;;;;;33.83;29.63;;;22.70;99.90;;;;;;5032662;28;20049;-79
2023/06/29 11:20:34;;;;;;;33.43;28.90;;;22.70;99.90;;;;;;5031165;28;20053;-82
2023/06/29 11:23:03;;;;;;;32.33;28.57;;;22.80;99.90;;;;;;5031531;28;20045;-81
2023/06/29 11:25:29;;;;;;;35.40;28.93;;;22.80;99.90;;;;;;5014179;28;20124;-79
2023/06/29 11:27:56;;;;;;;33.60;28.10;;;22.90;99.90;;;;;;5013513;28;20477;-82
2023/06/29 11:30:22;;;;;;;35.47;28.87;;;23.00;99.90;;;;;;5031143;28;20141;-83
2023/06/29 11:32:50;;;;;;;31.83;27.93;;;23.20;99.90;;;;;;5015047;28;20045;-84
2023/06/29 11:35:20;;;;;;;34.87;28.67;;;23.40;99.90;;;;;;5031406;28;20063;-83
2023/06/29 11:37:46;;;;;;;32.87;28.40;;;23.60;99.90;;;;;;5031160;28;20050;-84
2023/06/29 11:40:20;;;;;;;34.27;28.37;;;23.70;99.90;;;;;;5032607;28;20042;-85
2023/06/29 11:42:48;;;;;;;32.33;28.67;;;23.80;99.90;;;;;;5014536;28;20053;-84
2023/06/29 11:45:15;;;;;;;33.57;28.77;;;23.80;99.90;;;;;;5032284;28;20485;-72
2023/06/29 11:47:42;;;;;;;34.00;29.63;;;23.90;99.90;;;;;;5032023;28;20481;-76
2023/06/29 11:50:10;;;;;;;36.17;28.57;;;23.90;99.90;;;;;;5032271;28;20084;-74
2023/06/29 11:52:38;;;;;;;33.07;27.97;;;24.00;99.90;;;;;;5031801;28;20553;-85
2023/06/29 11:55:07;;;;;;;33.40;28.23;;;24.10;99.90;;;;;;5014973;28;20081;-84
2023/06/29 11:57:37;;;;;;;37.13;28.90;;;24.10;99.90;;;;;;5015063;28;20126;-84
2023/06/29 12:00:13;;;;;;;33.53;28.10;;;24.00;99.90;;;;;;4998436;28;20552;-83
2023/06/29 12:02:43;;;;;;;35.53;29.20;;;23.90;99.90;;;;;;5015894;28;20045;-75
2023/06/29 12:05:09;;;;;;;34.03;26.77;;;23.90;99.90;;;;;;5014473;28;20038;-73
2023/06/29 12:07:45;;;;;;;34.87;27.83;;;23.90;99.90;;;;;;5031791;28;20056;-73
2023/06/29 12:10:20;;;;;;;34.77;27.73;;;24.00;99.90;;;;;;5030699;28;20057;-81
2023/06/29 12:12:49;;;;;;;35.73;29.23;;;24.10;99.90;;;;;;5031800;28;20085;-81
2023/06/29 12:15:16;;;;;;;32.90;28.97;;;24.30;99.90;;;;;;5014578;28;20049;-81
2023/06/29 12:17:43;;;;;;;37.33;30.97;;;24.30;99.90;;;;;;5030619;28;20054;-81
2023/06/29 12:20:17;;;;;;;37.90;29.13;;;24.30;99.90;;;;;;5033285;28;20049;-73
2023/06/29 12:22:44;;;;;;;35.00;29.05;;;24.30;99.90;;;;;;5035431;28;20045;-72
2023/06/29 12:25:15;;;;;;;34.97;27.80;;;24.40;99.90;;;;;;5034529;28;20072;-71
2023/06/29 12:27:43;;;;;;;35.57;28.57;;;24.50;99.90;;;;;;5035436;28;20049;-73
2023/06/29 12:30:14;;;;;;;35.83;26.70;;;24.60;99.90;;;;;;5035422;28;20045;-71
2023/06/29 12:32:44;;;;;;;35.20;28.10;;;24.80;99.90;;;;;;5035398;28;20382;-71
2023/06/29 12:35:12;;;;;;;34.57;29.23;;;24.80;99.90;;;;;;5035352;28;20033;-72
2023/06/29 12:37:37;;;;;;;36.03;28.77;;;24.80;99.90;;;;;;5034377;28;20045;-72